sensor_id;sensor_type;location;lat;lon;timestamp;pressure;altitude;pressure_sealevel;temperature;humidity
62011;BME280;47967;51.756;10.174;2023-03-15T05:01:30;99348.03;;;1.92;87.23
62011;BME280;47967;51.756;10.174;2023-03-15T05:05:51;99356.16;;;1.91;87.22
62011;BME280;47967;51.756;10.174;2023-03-15T05:10:08;99369.22;;;2.02;86.87
62011;BME280;47967;51.756;10.174;2023-03-15T05:14:20;99378.34;;;2.00;86.80
62011;BME280;47967;51.756;10.174;2023-03-15T05:18:45;99377.00;;;1.96;86.99
62011;BME280;47967;51.756;10.174;2023-03-15T05:22:57;99381.47;;;1.95;87.27
62011;BME280;47967;51.756;10.174;2023-03-15T05:27:23;99388.38;;;2.06;86.81
62011;BME280;47967;51.756;10.174;2023-03-15T05:31:43;99399.91;;;2.15;86.49
62011;BME280;47967;51.756;10.174;2023-03-15T05:36:00;99410.63;;;2.23;86.63
62011;BME280;47967;51.756;10.174;2023-03-15T05:40:10;99409.78;;;2.22;86.47
62011;BME280;47967;51.756;10.174;2023-03-15T05:44:39;99423.22;;;2.21;86.33
62011;BME280;47967;51.756;10.174;2023-03-15T05:49:04;99435.88;;;2.19;86.17
62011;BME280;47967;51.756;10.174;2023-03-15T05:53:17;99435.13;;;2.08;85.70
62011;BME280;47967;51.756;10.174;2023-03-15T05:57:35;99451.00;;;2.18;85.85
62011;BME280;47967;51.756;10.174;2023-03-15T06:02:13;99453.72;;;2.27;85.73
62011;BME280;47967;51.756;10.174;2023-03-15T06:06:25;99467.28;;;2.33;84.83
62011;BME280;47967;51.756;10.174;2023-03-15T06:10:29;99470.75;;;2.34;84.30
62011;BME280;47967;51.756;10.174;2023-03-15T06:14:37;99478.13;;;2.40;84.20
62011;BME280;47967;51.756;10.174;2023-03-15T06:18:42;99487.25;;;2.55;83.84
62011;BME280;47967;51.756;10.174;2023-03-15T06:22:44;99491.25;;;2.60;83.56
62011;BME280;47967;51.756;10.174;2023-03-15T06:27:02;99494.16;;;2.66;83.02
62011;BME280;47967;51.756;10.174;2023-03-15T06:31:06;99501.44;;;2.64;82.60
62011;BME280;47967;51.756;10.174;2023-03-15T06:35:17;99503.66;;;2.69;81.80
62011;BME280;47967;51.756;10.174;2023-03-15T06:39:20;99514.91;;;2.81;82.05
62011;BME280;47967;51.756;10.174;2023-03-15T06:43:24;99530.16;;;2.97;81.69
62011;BME280;47967;51.756;10.174;2023-03-15T06:47:26;99528.38;;;3.06;81.88
62011;BME280;47967;51.756;10.174;2023-03-15T06:51:29;99529.47;;;3.21;81.91
62011;BME280;47967;51.756;10.174;2023-03-15T06:55:32;99542.47;;;3.24;81.37
62011;BME280;47967;51.756;10.174;2023-03-15T06:59:36;99547.50;;;3.35;80.83
62011;BME280;47967;51.756;10.174;2023-03-15T07:03:38;99558.56;;;3.41;80.38
62011;BME280;47967;51.756;10.174;2023-03-15T07:07:41;99570.41;;;3.46;80.18
62011;BME280;47967;51.756;10.174;2023-03-15T07:11:43;99559.47;;;3.58;79.55
62011;BME280;47967;51.756;10.174;2023-03-15T07:15:51;99573.22;;;3.71;79.23
62011;BME280;47967;51.756;10.174;2023-03-15T07:19:54;99572.53;;;3.69;78.82
62011;BME280;47967;51.756;10.174;2023-03-15T07:23:57;99573.16;;;3.63;79.08
62011;BME280;47967;51.756;10.174;2023-03-15T07:28:00;99571.16;;;3.65;78.39
62011;BME280;47967;51.756;10.174;2023-03-15T07:32:04;99579.53;;;3.70;77.16
62011;BME280;47967;51.756;10.174;2023-03-15T07:36:07;99573.69;;;3.75;78.39
62011;BME280;47967;51.756;10.174;2023-03-15T07:40:11;99592.88;;;3.70;78.15
62011;BME280;47967;51.756;10.174;2023-03-15T07:44:14;99594.78;;;3.86;78.05
62011;BME280;47967;51.756;10.174;2023-03-15T07:48:18;99599.34;;;4.02;77.73
62011;BME280;47967;51.756;10.174;2023-03-15T07:52:20;99607.03;;;4.13;76.85
62011;BME280;47967;51.756;10.174;2023-03-15T07:56:23;99607.94;;;4.39;75.93
62011;BME280;47967;51.756;10.174;2023-03-15T08:00:26;99600.47;;;4.75;74.18
62011;BME280;47967;51.756;10.174;2023-03-15T08:04:31;99598.81;;;4.91;72.61
62011;BME280;47967;51.756;10.174;2023-03-15T08:08:36;99613.00;;;4.91;71.52
62011;BME280;47967;51.756;10.174;2023-03-15T08:12:39;99608.47;;;4.92;69.09
62011;BME280;47967;51.756;10.174;2023-03-15T08:16:43;99607.34;;;4.86;68.25
62011;BME280;47967;51.756;10.174;2023-03-15T08:20:47;99628.34;;;4.56;67.81
62011;BME280;47967;51.756;10.174;2023-03-15T08:24:49;99628.34;;;4.48;69.45
62011;BME280;47967;51.756;10.174;2023-03-15T08:28:53;99624.69;;;4.65;70.04
62011;BME280;47967;51.756;10.174;2023-03-15T08:32:56;99628.88;;;4.68;69.13
62011;BME280;47967;51.756;10.174;2023-03-15T08:37:00;99634.06;;;4.86;67.24
62011;BME280;47967;51.756;10.174;2023-03-15T08:41:02;99634.03;;;4.70;68.44
62011;BME280;47967;51.756;10.174;2023-03-15T08:45:06;99635.13;;;4.34;69.23
62011;BME280;47967;51.756;10.174;2023-03-15T08:49:09;99644.75;;;4.19;69.52
62011;BME280;47967;51.756;10.174;2023-03-15T08:53:13;99653.00;;;4.33;70.60
62011;BME280;47967;51.756;10.174;2023-03-15T08:57:16;99660.53;;;4.38;71.28
62011;BME280;47967;51.756;10.174;2023-03-15T09:01:18;99659.78;;;4.79;69.85
62011;BME280;47967;51.756;10.174;2023-03-15T09:05:23;99668.66;;;4.96;68.82
62011;BME280;47967;51.756;10.174;2023-03-15T09:09:27;99675.50;;;5.07;66.87
62011;BME280;47967;51.756;10.174;2023-03-15T09:13:29;99684.69;;;4.96;65.41
62011;BME280;47967;51.756;10.174;2023-03-15T09:17:32;99682.88;;;5.13;65.63
62011;BME280;47967;51.756;10.174;2023-03-15T09:21:34;99696.56;;;5.26;66.48
62011;BME280;47967;51.756;10.174;2023-03-15T09:25:39;99708.63;;;5.14;66.75
62011;BME280;47967;51.756;10.174;2023-03-15T09:29:41;99693.22;;;5.41;66.62
62011;BME280;47967;51.756;10.174;2023-03-15T09:33:44;99710.00;;;4.51;66.25
62011;BME280;47967;51.756;10.174;2023-03-15T09:37:48;99705.53;;;4.76;68.34
62011;BME280;47967;51.756;10.174;2023-03-15T09:41:54;99709.22;;;4.83;66.92
62011;BME280;47967;51.756;10.174;2023-03-15T09:46:09;99720.13;;;4.98;66.81
62011;BME280;47967;51.756;10.174;2023-03-15T09:50:20;99728.94;;;4.74;67.23
62011;BME280;47967;51.756;10.174;2023-03-15T09:54:27;99730.66;;;5.08;66.73
62011;BME280;47967;51.756;10.174;2023-03-15T09:58:34;99728.84;;;5.17;67.94
62011;BME280;47967;51.756;10.174;2023-03-15T10:02:41;99726.81;;;5.85;65.78
62011;BME280;47967;51.756;10.174;2023-03-15T10:06:49;99739.72;;;5.48;63.74
62011;BME280;47967;51.756;10.174;2023-03-15T10:10:59;99744.72;;;5.51;66.41
62011;BME280;47967;51.756;10.174;2023-03-15T10:15:29;99745.63;;;4.68;66.48
62011;BME280;47967;51.756;10.174;2023-03-15T10:19:38;99748.25;;;4.59;67.07
62011;BME280;47967;51.756;10.174;2023-03-15T10:23:49;99759.09;;;4.23;69.06
62011;BME280;47967;51.756;10.174;2023-03-15T10:27:56;99765.38;;;4.40;68.98
62011;BME280;47967;51.756;10.174;2023-03-15T10:32:04;99761.19;;;4.80;67.72
62011;BME280;47967;51.756;10.174;2023-03-15T10:36:13;99763.91;;;5.13;64.51
62011;BME280;47967;51.756;10.174;2023-03-15T10:40:38;99761.56;;;6.18;63.32
62011;BME280;47967;51.756;10.174;2023-03-15T10:44:41;99759.00;;;7.04;60.93
62011;BME280;47967;51.756;10.174;2023-03-15T10:48:55;99751.06;;;7.57;55.81
62011;BME280;47967;51.756;10.174;2023-03-15T10:53:00;99753.09;;;7.55;56.63
62011;BME280;47967;51.756;10.174;2023-03-15T10:57:05;99756.91;;;7.61;54.17
62011;BME280;47967;51.756;10.174;2023-03-15T11:01:23;99750.03;;;8.11;53.11
62011;BME280;47967;51.756;10.174;2023-03-15T11:05:30;99764.88;;;7.92;52.39
62011;BME280;47967;51.756;10.174;2023-03-15T11:09:38;99764.59;;;6.94;51.78
62011;BME280;47967;51.756;10.174;2023-03-15T11:13:41;99762.88;;;6.70;52.51
62011;BME280;47967;51.756;10.174;2023-03-15T11:17:55;99771.03;;;6.85;54.42
62011;BME280;47967;51.756;10.174;2023-03-15T11:22:01;99771.63;;;6.07;54.42
62011;BME280;47967;51.756;10.174;2023-03-15T11:26:04;99777.34;;;6.52;54.73
62011;BME280;47967;51.756;10.174;2023-03-15T11:30:11;99761.16;;;7.09;53.97
62011;BME280;47967;51.756;10.174;2023-03-15T11:34:21;99765.75;;;7.46;52.11
62011;BME280;47967;51.756;10.174;2023-03-15T11:38:29;99758.88;;;8.35;53.97
62011;BME280;47967;51.756;10.174;2023-03-15T11:42:37;99763.84;;;8.38;48.68
62011;BME280;47967;51.756;10.174;2023-03-15T11:46:47;99771.09;;;8.23;48.22
62011;BME280;47967;51.756;10.174;2023-03-15T11:50:51;99780.13;;;7.53;51.87
62011;BME280;47967;51.756;10.174;2023-03-15T11:54:57;99781.13;;;7.06;53.95
62011;BME280;47967;51.756;10.174;2023-03-15T11:59:05;99791.44;;;6.46;57.48
62011;BME280;47967;51.756;10.174;2023-03-15T12:03:36;99803.25;;;6.20;55.73
62011;BME280;47967;51.756;10.174;2023-03-15T12:07:59;99801.44;;;6.04;55.79
62011;BME280;47967;51.756;10.174;2023-03-15T12:12:05;99813.28;;;6.10;53.76
62011;BME280;47967;51.756;10.174;2023-03-15T12:16:10;99809.75;;;6.82;52.34
62011;BME280;47967;51.756;10.174;2023-03-15T12:20:21;99816.75;;;6.83;51.61
62011;BME280;47967;51.756;10.174;2023-03-15T12:24:30;99815.78;;;7.16;52.39
62011;BME280;47967;51.756;10.174;2023-03-15T12:28:41;99821.88;;;7.01;52.24
62011;BME280;47967;51.756;10.174;2023-03-15T12:32:52;99828.44;;;6.99;51.37
62011;BME280;47967;51.756;10.174;2023-03-15T12:36:59;99847.56;;;6.48;52.46
62011;BME280;47967;51.756;10.174;2023-03-15T12:41:07;99843.19;;;6.47;54.74
62011;BME280;47967;51.756;10.174;2023-03-15T12:45:36;99825.00;;;6.17;58.15
62011;BME280;47967;51.756;10.174;2023-03-15T12:49:41;99819.06;;;6.47;57.64
62011;BME280;47967;51.756;10.174;2023-03-15T12:53:48;99813.31;;;7.06;56.97
62011;BME280;47967;51.756;10.174;2023-03-15T12:57:51;99812.03;;;6.94;55.34
62011;BME280;47967;51.756;10.174;2023-03-15T13:01:58;99810.94;;;7.11;53.63
62011;BME280;47967;51.756;10.174;2023-03-15T13:06:05;99813.38;;;6.89;52.86
62011;BME280;47967;51.756;10.174;2023-03-15T13:10:35;99831.47;;;6.48;54.90
62011;BME280;47967;51.756;10.174;2023-03-15T13:14:41;99847.03;;;6.52;56.62
62011;BME280;47967;51.756;10.174;2023-03-15T13:18:53;99840.56;;;6.38;59.16
62011;BME280;47967;51.756;10.174;2023-03-15T13:23:05;99841.22;;;6.32;58.19
62011;BME280;47967;51.756;10.174;2023-03-15T13:27:26;99832.06;;;6.75;58.67
62011;BME280;47967;51.756;10.174;2023-03-15T13:31:32;99831.13;;;6.99;55.04
62011;BME280;47967;51.756;10.174;2023-03-15T13:35:42;99836.72;;;7.20;51.51
62011;BME280;47967;51.756;10.174;2023-03-15T13:39:54;99821.66;;;7.43;49.58
62011;BME280;47967;51.756;10.174;2023-03-15T13:43:59;99818.19;;;7.80;49.99
62011;BME280;47967;51.756;10.174;2023-03-15T13:48:05;99811.50;;;8.29;47.48
62011;BME280;47967;51.756;10.174;2023-03-15T13:52:10;99842.94;;;7.44;46.88
62011;BME280;47967;51.756;10.174;2023-03-15T13:56:16;99866.34;;;7.82;46.92
62011;BME280;47967;51.756;10.174;2023-03-15T14:00:20;99854.63;;;7.51;54.55
62011;BME280;47967;51.756;10.174;2023-03-15T14:04:24;99848.00;;;6.68;56.67
62011;BME280;47967;51.756;10.174;2023-03-15T14:08:30;99851.53;;;6.60;57.20
62011;BME280;47967;51.756;10.174;2023-03-15T14:12:34;99847.28;;;6.82;55.07
62011;BME280;47967;51.756;10.174;2023-03-15T14:16:40;99870.97;;;6.62;54.66
62011;BME280;47967;51.756;10.174;2023-03-15T14:21:06;99878.72;;;6.49;54.50
62011;BME280;47967;51.756;10.174;2023-03-15T14:25:20;99911.25;;;5.28;58.48
62011;BME280;47967;51.756;10.174;2023-03-15T14:29:26;99905.31;;;5.08;60.70
62011;BME280;47967;51.756;10.174;2023-03-15T14:33:32;99915.44;;;5.39;62.13
62011;BME280;47967;51.756;10.174;2023-03-15T14:37:37;99919.19;;;5.12;63.43
62011;BME280;47967;51.756;10.174;2023-03-15T14:41:42;99934.31;;;4.95;64.72
62011;BME280;47967;51.756;10.174;2023-03-15T14:45:46;99933.13;;;4.89;64.79
62011;BME280;47967;51.756;10.174;2023-03-15T14:49:49;99945.50;;;4.90;65.57
62011;BME280;47967;51.756;10.174;2023-03-15T14:53:53;99937.28;;;4.57;65.17
62011;BME280;47967;51.756;10.174;2023-03-15T14:57:59;99934.34;;;4.42;65.81
62011;BME280;47967;51.756;10.174;2023-03-15T15:02:02;99933.50;;;4.42;65.76
62011;BME280;47967;51.756;10.174;2023-03-15T15:06:08;99940.59;;;4.51;65.68
62011;BME280;47967;51.756;10.174;2023-03-15T15:10:12;99948.50;;;4.61;65.53
62011;BME280;47967;51.756;10.174;2023-03-15T15:14:16;99953.44;;;5.08;63.56
62011;BME280;47967;51.756;10.174;2023-03-15T15:18:19;99960.53;;;5.26;62.08
62011;BME280;47967;51.756;10.174;2023-03-15T15:22:21;99957.69;;;5.70;60.80
62011;BME280;47967;51.756;10.174;2023-03-15T15:26:26;99963.06;;;5.79;59.44
62011;BME280;47967;51.756;10.174;2023-03-15T15:30:30;99959.63;;;6.11;58.88
62011;BME280;47967;51.756;10.174;2023-03-15T15:34:32;99957.28;;;6.00;58.10
62011;BME280;47967;51.756;10.174;2023-03-15T15:38:36;99956.25;;;6.09;58.40
62011;BME280;47967;51.756;10.174;2023-03-15T15:42:40;99958.97;;;6.42;57.86
62011;BME280;47967;51.756;10.174;2023-03-15T15:46:44;99960.13;;;6.23;57.68
62011;BME280;47967;51.756;10.174;2023-03-15T15:50:47;99964.66;;;6.39;56.51
62011;BME280;47967;51.756;10.174;2023-03-15T15:54:49;99967.84;;;6.43;56.16
62011;BME280;47967;51.756;10.174;2023-03-15T15:58:52;99975.53;;;6.29;55.88
62011;BME280;47967;51.756;10.174;2023-03-15T16:02:57;99973.19;;;6.18;54.82
62011;BME280;47967;51.756;10.174;2023-03-15T16:07:01;99973.69;;;6.30;55.16
62011;BME280;47967;51.756;10.174;2023-03-15T16:11:05;99983.31;;;5.89;54.24
62011;BME280;47967;51.756;10.174;2023-03-15T16:15:10;99983.38;;;6.06;56.37
62011;BME280;47967;51.756;10.174;2023-03-15T16:19:15;99984.59;;;5.69;57.41
62011;BME280;47967;51.756;10.174;2023-03-15T16:23:19;99988.44;;;5.66;57.82
62011;BME280;47967;51.756;10.174;2023-03-15T16:27:24;99998.53;;;5.81;57.12
62011;BME280;47967;51.756;10.174;2023-03-15T16:31:28;99996.19;;;5.86;57.49
62011;BME280;47967;51.756;10.174;2023-03-15T16:35:36;100008.50;;;6.13;56.87
62011;BME280;47967;51.756;10.174;2023-03-15T16:39:40;100002.81;;;6.24;56.49
62011;BME280;47967;51.756;10.174;2023-03-15T16:43:44;100016.25;;;6.82;55.78
62011;BME280;47967;51.756;10.174;2023-03-15T16:47:50;100019.38;;;7.02;55.06
62011;BME280;47967;51.756;10.174;2023-03-15T16:51:54;100014.00;;;7.02;55.26
62011;BME280;47967;51.756;10.174;2023-03-15T16:55:56;100015.91;;;6.61;56.04
62011;BME280;47967;51.756;10.174;2023-03-15T16:59:59;100025.69;;;5.94;58.12
62011;BME280;47967;51.756;10.174;2023-03-15T17:04:05;100034.06;;;5.56;59.49
62011;BME280;47967;51.756;10.174;2023-03-15T17:08:14;100035.78;;;5.23;60.13
62011;BME280;47967;51.756;10.174;2023-03-15T17:12:20;100035.19;;;4.85;60.79
62011;BME280;47967;51.756;10.174;2023-03-15T17:16:24;100040.50;;;4.58;61.75
62011;BME280;47967;51.756;10.174;2023-03-15T17:20:27;100048.59;;;4.12;63.43
62011;BME280;47967;51.756;10.174;2023-03-15T17:24:31;100054.41;;;3.80;65.11
62011;BME280;47967;51.756;10.174;2023-03-15T17:28:34;100058.72;;;3.63;66.44
62011;BME280;47967;51.756;10.174;2023-03-15T17:32:37;100062.88;;;3.38;67.22
62011;BME280;47967;51.756;10.174;2023-03-15T17:36:40;100069.59;;;3.04;68.54
62011;BME280;47967;51.756;10.174;2023-03-15T17:40:44;100064.13;;;2.96;69.49
62011;BME280;47967;51.756;10.174;2023-03-15T17:44:47;100077.19;;;2.89;69.56
62011;BME280;47967;51.756;10.174;2023-03-15T17:48:49;100078.06;;;2.70;69.97
62011;BME280;47967;51.756;10.174;2023-03-15T17:52:54;100085.34;;;2.58;70.69
62011;BME280;47967;51.756;10.174;2023-03-15T17:56:58;100090.38;;;2.51;71.69
62011;BME280;47967;51.756;10.174;2023-03-15T18:01:01;100091.50;;;2.49;71.53
62011;BME280;47967;51.756;10.174;2023-03-15T18:05:12;100089.13;;;2.46;71.52
62011;BME280;47967;51.756;10.174;2023-03-15T18:09:18;100091.38;;;2.40;72.36
62011;BME280;47967;51.756;10.174;2023-03-15T18:13:23;100101.00;;;2.32;71.55
62011;BME280;47967;51.756;10.174;2023-03-15T18:17:27;100093.56;;;2.16;71.61
62011;BME280;47967;51.756;10.174;2023-03-15T18:21:30;100086.81;;;1.92;71.36
62011;BME280;47967;51.756;10.174;2023-03-15T18:25:34;100107.31;;;1.70;71.99
62011;BME280;47967;51.756;10.174;2023-03-15T18:29:37;100107.91;;;1.43;72.41
62011;BME280;47967;51.756;10.174;2023-03-15T18:33:40;100117.56;;;1.23;73.02
62011;BME280;47967;51.756;10.174;2023-03-15T18:37:43;100116.94;;;1.09;74.04
62011;BME280;47967;51.756;10.174;2023-03-15T18:41:45;100118.41;;;1.02;74.83
62011;BME280;47967;51.756;10.174;2023-03-15T18:45:50;100115.13;;;0.89;75.19
62011;BME280;47967;51.756;10.174;2023-03-15T18:49:52;100117.06;;;0.87;75.61
62011;BME280;47967;51.756;10.174;2023-03-15T18:54:04;100120.03;;;0.72;76.21
62011;BME280;47967;51.756;10.174;2023-03-15T18:58:07;100121.31;;;0.57;77.02
62011;BME280;47967;51.756;10.174;2023-03-15T19:02:14;100132.16;;;0.54;77.47
62011;BME280;47967;51.756;10.174;2023-03-15T19:06:17;100120.34;;;0.58;77.21
62011;BME280;47967;51.756;10.174;2023-03-15T19:10:21;100134.34;;;0.60;77.10
62011;BME280;47967;51.756;10.174;2023-03-15T19:14:24;100138.19;;;0.56;77.22
62011;BME280;47967;51.756;10.174;2023-03-15T19:18:28;100129.81;;;0.39;77.15
62011;BME280;47967;51.756;10.174;2023-03-15T19:22:32;100133.94;;;0.21;78.15
62011;BME280;47967;51.756;10.174;2023-03-15T19:26:35;100143.50;;;0.01;77.59
62011;BME280;47967;51.756;10.174;2023-03-15T19:30:37;100140.03;;;-0.11;78.62
62011;BME280;47967;51.756;10.174;2023-03-15T19:34:41;100146.78;;;-0.19;79.83
62011;BME280;47967;51.756;10.174;2023-03-15T19:38:44;100152.31;;;-0.10;80.52
62011;BME280;47967;51.756;10.174;2023-03-15T19:42:47;100155.34;;;-0.04;80.23
62011;BME280;47967;51.756;10.174;2023-03-15T19:46:49;100164.38;;;0.05;80.09
62011;BME280;47967;51.756;10.174;2023-03-15T19:50:53;100172.44;;;-0.08;80.03
62011;BME280;47967;51.756;10.174;2023-03-15T19:54:56;100178.00;;;-0.11;80.17
62011;BME280;47967;51.756;10.174;2023-03-15T19:59:01;100195.97;;;-0.14;80.11
62011;BME280;47967;51.756;10.174;2023-03-15T20:03:04;100194.03;;;-0.35;80.08
62011;BME280;47967;51.756;10.174;2023-03-15T20:07:08;100193.38;;;-0.50;81.00
62011;BME280;47967;51.756;10.174;2023-03-15T20:11:12;100204.47;;;-0.56;82.19
62011;BME280;47967;51.756;10.174;2023-03-15T20:15:20;100208.94;;;-0.57;81.97
62011;BME280;47967;51.756;10.174;2023-03-15T20:19:22;100200.97;;;-0.57;82.02
62011;BME280;47967;51.756;10.174;2023-03-15T20:23:26;100203.84;;;-0.60;82.43
62011;BME280;47967;51.756;10.174;2023-03-15T20:27:30;100217.34;;;-0.63;82.62
62011;BME280;47967;51.756;10.174;2023-03-15T20:31:34;100215.03;;;-0.68;82.34
62011;BME280;47967;51.756;10.174;2023-03-15T20:35:36;100219.97;;;-0.74;82.81
62011;BME280;47967;51.756;10.174;2023-03-15T20:39:40;100216.94;;;-0.81;82.74
62011;BME280;47967;51.756;10.174;2023-03-15T20:43:43;100226.41;;;-0.90;82.93
62011;BME280;47967;51.756;10.174;2023-03-15T20:47:46;100237.34;;;-0.94;82.64
62011;BME280;47967;51.756;10.174;2023-03-15T20:51:49;100237.81;;;-1.01;82.92
62011;BME280;47967;51.756;10.174;2023-03-15T20:55:52;100242.59;;;-1.06;83.31
62011;BME280;47967;51.756;10.174;2023-03-15T20:59:55;100250.31;;;-1.03;83.18
62011;BME280;47967;51.756;10.174;2023-03-15T21:03:57;100249.84;;;-0.97;83.82
62011;BME280;47967;51.756;10.174;2023-03-15T21:08:00;100252.41;;;-0.95;83.62
62011;BME280;47967;51.756;10.174;2023-03-15T21:12:05;100247.31;;;-0.98;83.78
62011;BME280;47967;51.756;10.174;2023-03-15T21:16:10;100245.91;;;-1.15;83.94
62011;BME280;47967;51.756;10.174;2023-03-15T21:20:15;100240.78;;;-1.30;83.58
62011;BME280;47967;51.756;10.174;2023-03-15T21:24:17;100239.81;;;-1.29;84.24
62011;BME280;47967;51.756;10.174;2023-03-15T21:28:22;100247.75;;;-1.29;84.85
62011;BME280;47967;51.756;10.174;2023-03-15T21:32:25;100245.69;;;-1.36;84.56
62011;BME280;47967;51.756;10.174;2023-03-15T21:36:27;100252.06;;;-1.39;84.79
62011;BME280;47967;51.756;10.174;2023-03-15T21:40:30;100255.66;;;-1.40;84.86
62011;BME280;47967;51.756;10.174;2023-03-15T21:44:34;100242.00;;;-1.47;84.65
62011;BME280;47967;51.756;10.174;2023-03-15T21:48:36;100237.78;;;-1.49;85.57
62011;BME280;47967;51.756;10.174;2023-03-15T21:52:39;100252.38;;;-1.43;85.25
62011;BME280;47967;51.756;10.174;2023-03-15T21:56:41;100255.16;;;-1.45;85.93
